San Ignacio, Argentina
Current Conditions -  °F | °C
As of 11:00 AM on Tuesday 21 Oct 2014 (Local Time) from SGEN Reporting Station
Clear Clear  
Wind Chill: 79°   Ceiling: Unl
Heat Index: 79°   Visibility: 6mi
Dew Point: 46°   Wind: 7mph
Humidity: 32%   Direction: 120°ESE
Pressure: 30.09"   Gusts: NA
Location:  27.27°S, 55.53°W
Report Text: SGEN 211400Z 12006KT CAVOK 26/08 Q1019
Loading
Personal Weather Stations






























Interactive Weather Map
Tropical Storm Tracking
New forecast layout! Learn more

10-Day Weather Forecast

Advertisements
Track Severe Weather on mobile